Terminal Aerodrome Forecast
Issued by NWS Portland, OR

Home | Current Version | Previous Version | Text Only | Print | Product List | Glossary On
Versions: 1 2 3 4 5 6 7 8 9 10 11 12 13 14 15 16 17 18 19 20 21 22
000
FTUS46 KPQR 191742
TAFAST
TAF
KAST 191742Z 1918/2018 20012KT 4SM -RA BR BKN012 OVC060
      TEMPO 1918/1922 P6SM NSW SCT015 BKN070
     FM192200 21012KT P6SM -SHRA SCT015 BKN035
     FM200600 22007KT P6SM -SHRA SCT020 BKN050
     FM201600 24014KT P6SM -SHRA BKN040=

USA.gov is the U.S. government's official web portal to all federal, state and local government web resources and services.